Time;durP1;ratioP1;P1;durP2;ratioP2;P2;SDS_P1;SDS_P2;PMS_P1;PMS_P2;Temp;Humidity;BMP_temperature;BMP_pressure;BME280_temperature;BME280_humidity;BME280_pressure;Samples;Min_cycle;Max_cycle;Signal;HPM_P1;HPM_P2
2022/05/07 00:01:24;;;;;;;162.88;105.70;;;;;;;6.53;100.00;102103.34;1713163;82;21070;-80
2022/05/07 00:03:52;;;;;;;156.35;105.43;;;;;;;6.52;100.00;102102.94;1712994;82;21057;-79
2022/05/07 00:06:20;;;;;;;156.60;104.32;;;;;;;6.51;100.00;102107.71;1713358;82;22032;-79
2022/05/07 00:08:47;;;;;;;155.87;101.67;;;;;;;6.49;100.00;102105.19;1713100;82;21050;-79
2022/05/07 00:11:20;;;;;;;152.10;97.40;;;;;;;6.47;100.00;102108.27;1713490;83;21077;-79
2022/05/07 00:22:33;;;;;;;119.40;79.75;;;;;;;6.25;100.00;102112.04;1814835;79;22724;-81
2022/05/07 00:25:01;;;;;;;125.95;81.75;;;;;;;6.22;100.00;102115.55;1787724;80;21480;-81
2022/05/07 00:27:28;;;;;;;133.47;85.28;;;;;;;6.23;100.00;102115.95;1787502;80;21317;-80
2022/05/07 00:29:55;;;;;;;126.60;83.03;;;;;;;6.21;100.00;102109.14;1787493;80;21566;-80
2022/05/07 00:32:22;;;;;;;126.27;85.87;;;;;;;6.19;100.00;102113.08;1787763;80;21044;-82
2022/05/07 00:34:49;;;;;;;120.08;80.92;;;;;;;6.13;100.00;102107.66;1787329;80;21093;-82
2022/05/07 00:37:16;;;;;;;119.90;76.28;;;;;;;6.09;100.00;102109.92;1787761;80;21515;-82
2022/05/07 00:39:44;;;;;;;117.35;78.55;;;;;;;6.08;100.00;102109.98;1787681;80;21253;-81
2022/05/07 00:42:11;;;;;;;118.90;77.87;;;;;;;6.08;100.00;102114.73;1787893;80;21029;-81
2022/05/07 00:44:38;;;;;;;121.85;78.30;;;;;;;6.06;100.00;102110.47;1787595;80;20934;-81
2022/05/07 00:47:24;;;;;;;116.73;78.00;;;;;;;6.04;100.00;102104.53;1787972;80;21404;-83
2022/05/07 00:52:44;;;;;;;108.97;73.62;;;;;;;6.02;100.00;102110.19;1787510;80;21102;-81
2022/05/07 00:55:12;;;;;;;115.22;73.67;;;;;;;5.96;100.00;102112.48;1787667;80;21101;-82
2022/05/07 00:57:40;;;;;;;118.55;75.40;;;;;;;5.91;100.00;102111.34;1788060;80;21104;-81
2022/05/07 01:00:09;;;;;;;113.40;72.95;;;;;;;5.85;100.00;102118.00;1757282;80;21065;-81
2022/05/07 01:02:37;;;;;;;110.57;72.82;;;;;;;5.72;100.00;102117.98;1787812;80;21693;-81
2022/05/07 01:05:06;;;;;;;109.48;71.92;;;;;;;5.60;100.00;102116.62;1787437;80;21182;-81
2022/05/07 01:07:34;;;;;;;118.35;75.20;;;;;;;5.52;100.00;102119.42;1787991;80;21547;-81
2022/05/07 01:10:05;;;;;;;116.60;74.85;;;;;;;5.42;100.00;102110.24;1787627;80;21491;-81
2022/05/07 01:12:36;;;;;;;116.05;73.72;;;;;;;5.33;100.00;102116.53;1788147;80;21033;-83
2022/05/07 01:15:06;;;;;;;114.80;72.62;;;;;;;5.21;100.00;102119.03;1787755;79;21044;-83
2022/05/07 01:17:34;;;;;;;110.00;67.20;;;;;;;5.08;100.00;102120.27;1788127;79;21135;-82
2022/05/07 01:20:09;;;;;;;107.87;67.55;;;;;;;4.99;100.00;102124.80;1781483;80;20994;-83
2022/05/07 01:22:36;;;;;;;105.50;67.65;;;;;;;4.96;100.00;102126.16;1772385;80;21018;-82
2022/05/07 01:25:04;;;;;;;106.50;65.45;;;;;;;4.89;100.00;102122.89;1729887;80;21006;-84
2022/05/07 01:27:32;;;;;;;97.78;66.00;;;;;;;4.85;100.00;102129.04;1754720;80;21003;-84
2022/05/07 01:29:59;;;;;;;101.62;64.82;;;;;;;4.79;100.00;102133.51;1782852;79;21148;-82
2022/05/07 01:32:26;;;;;;;98.80;62.62;;;;;;;4.72;100.00;102129.80;1782260;80;21022;-82
2022/05/07 01:34:54;;;;;;;108.27;66.65;;;;;;;4.71;100.00;102127.27;1782087;80;21049;-80
2022/05/07 01:37:22;;;;;;;105.32;68.25;;;;;;;4.69;100.00;102129.88;1782070;80;21607;-80
2022/05/07 01:39:49;;;;;;;101.65;64.65;;;;;;;4.65;100.00;102138.59;1782543;80;21013;-79
2022/05/07 01:42:16;;;;;;;97.95;61.55;;;;;;;4.58;100.00;102132.73;1781933;80;21141;-80
2022/05/07 01:44:43;;;;;;;100.05;65.60;;;;;;;4.55;100.00;102136.70;1782146;80;21037;-80
2022/05/07 01:49:57;;;;;;;107.58;64.77;;;;;;;4.56;100.00;102143.56;1782177;80;21650;-79
2022/05/07 01:52:25;;;;;;;106.45;63.68;;;;;;;4.58;100.00;102150.80;1782098;80;21049;-80
2022/05/07 01:54:52;;;;;;;101.62;64.20;;;;;;;4.61;100.00;102146.00;1782205;80;21818;-79
2022/05/07 01:57:19;;;;;;;103.65;64.55;;;;;;;4.63;100.00;102149.39;1781874;80;21089;-81
2022/05/07 01:59:47;;;;;;;91.42;60.52;;;;;;;4.64;100.00;102147.68;1782277;80;21081;-81
2022/05/07 02:02:15;;;;;;;104.80;64.70;;;;;;;4.60;100.00;102151.20;1782321;80;21022;-81
2022/05/07 02:04:42;;;;;;;97.75;63.10;;;;;;;4.57;100.00;102150.84;1782105;80;21203;-86
2022/05/07 02:07:11;;;;;;;104.72;66.50;;;;;;;4.54;100.00;102152.20;1782047;80;21895;-83
2022/05/07 02:09:40;;;;;;;99.80;63.23;;;;;;;4.49;100.00;102155.35;1781961;80;21053;-83
2022/05/07 02:12:08;;;;;;;92.17;60.70;;;;;;;4.44;100.00;102156.75;1782211;80;21022;-82
2022/05/07 02:14:36;;;;;;;91.15;59.55;;;;;;;4.38;100.00;102160.32;1754135;80;21046;-82
2022/05/07 02:17:04;;;;;;;85.55;56.88;;;;;;;4.41;100.00;102156.39;1782110;80;21579;-82
2022/05/07 02:19:32;;;;;;;96.47;58.90;;;;;;;4.48;100.00;102163.55;1781863;80;21147;-84
2022/05/07 02:21:59;;;;;;;90.92;58.75;;;;;;;4.48;100.00;102162.25;1781942;79;20999;-83
2022/05/07 02:24:26;;;;;;;87.12;57.90;;;;;;;4.50;100.00;102169.95;1775987;80;21050;-83
2022/05/07 02:26:53;;;;;;;88.62;59.10;;;;;;;4.56;100.00;102170.66;1773775;80;21050;-83
2022/05/07 02:29:20;;;;;;;91.15;60.15;;;;;;;4.63;100.00;102175.66;1773652;80;21050;-83
2022/05/07 02:32:03;;;;;;;87.30;56.77;;;;;;;4.65;100.00;102173.86;1751954;80;21165;-82
2022/05/07 02:34:33;;;;;;;84.67;55.38;;;;;;;4.68;100.00;102178.95;1751552;80;21107;-82
2022/05/07 02:37:04;;;;;;;88.22;56.20;;;;;;;4.68;100.00;102186.27;1773476;80;21634;-83
2022/05/07 02:39:35;;;;;;;84.55;56.20;;;;;;;4.67;100.00;102188.44;1773585;80;21065;-83
2022/05/07 02:44:49;;;;;;;78.85;52.40;;;;;;;4.70;100.00;102181.06;1773427;80;21855;-82
2022/05/07 02:47:16;;;;;;;88.50;55.23;;;;;;;4.74;100.00;102180.95;1773367;80;21003;-79
2022/05/07 02:49:43;;;;;;;85.35;56.13;;;;;;;4.80;100.00;102181.66;1773559;80;21062;-80
2022/05/07 02:52:12;;;;;;;83.07;54.73;;;;;;;4.82;100.00;102184.60;1770147;80;21058;-80
2022/05/07 02:54:40;;;;;;;82.10;53.45;;;;;;;4.84;100.00;102182.84;1773896;80;21033;-79
2022/05/07 02:57:08;;;;;;;80.70;53.38;;;;;;;4.86;100.00;102186.23;1773417;80;21205;-79
2022/05/07 02:59:36;;;;;;;77.05;51.63;;;;;;;4.89;100.00;102191.30;1773493;80;21560;-79
2022/05/07 03:02:04;;;;;;;75.22;50.33;;;;;;;4.93;100.00;102191.23;1773099;80;21543;-80
2022/05/07 03:04:32;;;;;;;71.82;47.98;;;;;;;5.00;100.00;102190.18;1773759;80;21093;-79
2022/05/07 03:07:00;;;;;;;69.77;46.95;;;;;;;5.06;100.00;102193.88;1773739;80;21105;-81
2022/05/07 03:09:27;;;;;;;71.28;45.40;;;;;;;5.13;100.00;102191.99;1773976;80;21424;-80
2022/05/07 03:11:55;;;;;;;59.95;43.20;;;;;;;5.17;100.00;102199.63;1773381;80;21065;-82
2022/05/07 03:14:25;;;;;;;65.20;43.75;;;;;;;5.20;100.00;102196.10;1773400;80;21030;-80
2022/05/07 03:16:52;;;;;;;68.87;43.42;;;;;;;5.27;100.00;102200.20;1773472;80;21305;-80
2022/05/07 03:19:19;;;;;;;70.30;43.23;;;;;;;5.33;100.00;102205.20;1773594;80;21523;-80
2022/05/07 03:21:47;;;;;;;65.15;43.13;;;;;;;5.40;100.00;102210.22;1773736;80;21158;-80
2022/05/07 03:24:14;;;;;;;66.65;41.92;;;;;;;5.48;100.00;102207.81;1776905;80;21473;-79
2022/05/07 03:26:42;;;;;;;64.37;42.75;;;;;;;5.55;100.00;102209.78;1781378;80;21125;-80
2022/05/07 03:29:11;;;;;;;61.85;43.42;;;;;;;5.61;100.00;102210.89;1781693;80;21536;-79
2022/05/07 03:31:39;;;;;;;73.22;42.88;;;;;;;5.66;100.00;102212.05;1782098;80;21061;-81
2022/05/07 03:34:08;;;;;;;60.45;41.28;;;;;;;5.71;100.00;102213.22;1781750;80;21146;-80
2022/05/07 03:36:35;;;;;;;57.70;37.95;;;;;;;5.72;100.00;102220.09;1781696;80;21038;-79
2022/05/07 03:39:03;;;;;;;64.22;41.35;;;;;;;5.73;100.00;102223.91;1782175;80;20994;-81
2022/05/07 03:41:31;;;;;;;62.43;41.48;;;;;;;5.79;100.00;102222.89;1776921;80;21014;-79
2022/05/07 03:43:59;;;;;;;64.70;41.85;;;;;;;5.81;100.00;102224.53;1782175;80;21077;-81
2022/05/07 03:46:27;;;;;;;59.48;39.88;;;;;;;5.78;100.00;102220.73;1751058;80;21160;-79
2022/05/07 03:48:55;;;;;;;59.50;39.42;;;;;;;5.78;100.00;102222.48;1777381;80;21058;-81
2022/05/07 03:51:23;;;;;;;53.50;35.43;;;;;;;5.80;100.00;102228.47;1781559;80;21011;-80
2022/05/07 03:53:51;;;;;;;59.65;38.92;;;;;;;5.89;100.00;102228.62;1782159;80;21567;-80
2022/05/07 03:56:21;;;;;;;59.48;37.55;;;;;;;5.99;100.00;102234.80;1776948;80;21080;-81
2022/05/07 03:58:50;;;;;;;49.88;33.90;;;;;;;6.06;100.00;102232.02;1779807;80;21176;-82
2022/05/07 04:01:19;;;;;;;51.37;33.75;;;;;;;6.14;100.00;102230.05;1781440;80;21540;-80
2022/05/07 04:03:47;;;;;;;48.23;31.57;;;;;;;6.25;100.00;102233.63;1780874;80;21053;-80
2022/05/07 04:06:14;;;;;;;47.53;29.98;;;;;;;6.39;100.00;102233.17;1764130;80;21051;-80
2022/05/07 04:08:42;;;;;;;39.42;27.20;;;;;;;6.51;100.00;102231.94;1780935;80;21088;-80
2022/05/07 04:11:11;;;;;;;41.42;26.77;;;;;;;6.66;100.00;102228.02;1778580;80;21015;-80
2022/05/07 04:13:39;;;;;;;37.90;25.57;;;;;;;6.81;100.00;102232.69;1758665;80;21051;-80
2022/05/07 04:16:06;;;;;;;42.45;25.37;;;;;;;6.91;100.00;102225.02;1754845;80;21068;-81
2022/05/07 04:18:35;;;;;;;39.10;25.48;;;;;;;7.02;100.00;102226.36;1772892;80;21062;-79
2022/05/07 04:21:04;;;;;;;59.93;27.15;;;;;;;7.12;100.00;102229.05;1766760;80;21148;-79
2022/05/07 04:23:32;;;;;;;56.92;25.85;;;;;;;7.23;100.00;102220.89;1743345;80;21265;-80
2022/05/07 04:26:00;;;;;;;39.45;23.65;;;;;;;7.32;100.00;102225.75;1769691;80;21069;-81
2022/05/07 04:28:28;;;;;;;37.03;23.27;;;;;;;7.42;100.00;102224.53;1778268;80;21049;-81
2022/05/07 04:30:57;;;;;;;32.53;21.90;;;;;;;7.54;100.00;102231.02;1777436;80;21053;-81
2022/05/07 04:33:27;;;;;;;36.55;20.88;;;;;;;7.64;100.00;102228.09;1773980;80;21108;-80
2022/05/07 04:35:55;;;;;;;26.77;18.02;;;;;;;7.75;100.00;102228.52;1778655;80;21959;-82
2022/05/07 04:38:23;;;;;;;33.60;18.05;;;;;;;7.86;100.00;102226.37;1779004;80;21018;-80
2022/05/07 04:40:54;;;;;;;26.77;16.10;;;;;;;7.99;100.00;102228.48;1778845;80;21049;-82
2022/05/07 04:43:22;;;;;;;23.52;15.72;;;;;;;8.10;100.00;102228.94;1778798;80;21492;-79
2022/05/07 04:45:49;;;;;;;22.15;14.73;;;;;;;8.24;100.00;102230.13;1779216;80;21053;-81
2022/05/07 04:48:18;;;;;;;25.40;16.60;;;;;;;8.36;100.00;102231.79;1778794;80;21829;-80
2022/05/07 04:50:46;;;;;;;21.75;15.65;;;;;;;8.51;100.00;102228.21;1779044;80;21046;-80
2022/05/07 04:53:32;;;;;;;24.30;15.60;;;;;;;8.63;100.00;102230.76;1778653;80;21140;-81
2022/05/07 04:56:01;;;;;;;21.57;15.05;;;;;;;8.79;100.00;102230.98;1765848;80;21074;-80
2022/05/07 04:58:30;;;;;;;22.50;14.55;;;;;;;8.90;100.00;102229.23;1778659;80;21109;-81
2022/05/07 05:00:57;;;;;;;19.57;13.83;;;;;;;9.03;100.00;102226.48;1748224;80;22233;-80
2022/05/07 05:03:33;;;;;;;17.45;12.98;;;;;;;9.13;100.00;102229.09;1778399;80;21053;-82
2022/05/07 05:06:07;;;;;;;19.52;13.13;;;;;;;9.25;100.00;102229.48;1741930;80;21551;-81
2022/05/07 05:08:45;;;;;;;22.02;13.20;;;;;;;9.38;97.78;102231.91;1752813;80;21006;-81
2022/05/07 05:11:13;;;;;;;19.27;12.43;;;;;;;9.51;96.72;102227.02;1748565;80;21484;-81
2022/05/07 05:13:41;;;;;;;19.25;12.25;;;;;;;9.66;95.95;102224.62;1778804;80;21175;-80
2022/05/07 05:16:08;;;;;;;23.12;12.50;;;;;;;9.79;98.60;102222.70;1778591;80;21100;-80
2022/05/07 05:18:41;;;;;;;14.87;10.60;;;;;;;9.96;100.00;102219.77;1773989;80;21050;-81
2022/05/07 05:21:08;;;;;;;20.80;11.40;;;;;;;10.15;98.30;102220.19;1778890;80;21062;-79
2022/05/07 05:23:39;;;;;;;16.30;10.40;;;;;;;10.29;93.70;102215.63;1765387;80;21073;-80
2022/05/07 05:26:06;;;;;;;14.23;9.43;;;;;;;10.45;92.71;102219.67;1773291;80;21209;-80
2022/05/07 05:28:37;;;;;;;12.10;8.90;;;;;;;10.61;85.28;102221.05;1769766;80;21073;-82
2022/05/07 05:31:07;;;;;;;14.18;9.15;;;;;;;10.75;84.67;102218.59;1773445;80;21042;-80
2022/05/07 05:33:36;;;;;;;16.82;9.25;;;;;;;10.89;82.58;102221.80;1769652;80;21508;-81
2022/05/07 05:36:05;;;;;;;14.45;8.45;;;;;;;11.06;82.28;102224.84;1771467;80;21105;-81
2022/05/07 05:38:34;;;;;;;10.53;7.53;;;;;;;11.21;81.99;102232.34;1757265;80;21226;-86
2022/05/07 05:41:02;;;;;;;12.40;7.72;;;;;;;11.34;77.87;102216.89;1743541;80;21116;-82
2022/05/07 05:43:31;;;;;;;13.45;7.65;;;;;;;11.49;72.25;102216.55;1710615;82;21103;-82
2022/05/07 05:45:59;;;;;;;12.50;6.78;;;;;;;11.60;69.29;102215.50;1763363;80;21095;-81
2022/05/07 05:48:29;;;;;;;12.37;8.08;;;;;;;11.71;68.08;102215.38;1764184;80;21061;-82
2022/05/07 05:51:20;;;;;;;;;;;;;;;;;;;;;
2022/05/07 05:53:57;;;;;;;8.23;5.90;;;;;;;11.93;65.67;102214.58;1750029;80;21129;-81
2022/05/07 05:56:30;;;;;;;8.60;5.35;;;;;;;12.09;63.71;102217.22;1751556;80;21117;-84
2022/05/07 05:59:00;;;;;;;9.18;6.17;;;;;;;12.19;62.54;102216.23;1750796;80;21113;-81
2022/05/07 06:01:36;;;;;;;8.25;6.17;;;;;;;12.29;59.27;102213.48;1770876;80;21049;-81
2022/05/07 06:04:08;;;;;;;9.35;5.42;;;;;;;12.39;62.07;102209.02;1758429;80;21884;-83
2022/05/07 06:06:36;;;;;;;10.20;5.62;;;;;;;12.46;54.90;102201.19;1773383;80;21481;-82
2022/05/07 06:09:03;;;;;;;8.55;5.58;;;;;;;12.56;58.43;102201.05;1773182;80;21026;-81
2022/05/07 06:11:31;;;;;;;10.38;4.87;;;;;;;12.68;56.56;102200.79;1773392;80;21825;-82
2022/05/07 06:14:01;;;;;;;10.05;4.85;;;;;;;12.78;57.14;102201.08;1773278;80;21531;-79
2022/05/07 06:16:29;;;;;;;10.72;5.03;;;;;;;12.85;54.13;102202.87;1773133;80;21234;-79
2022/05/07 06:18:58;;;;;;;7.72;4.67;;;;;;;12.86;52.91;102202.77;1769497;80;21026;-80
2022/05/07 06:21:26;;;;;;;10.70;5.05;;;;;;;12.90;54.66;102205.59;1761764;80;21075;-79
2022/05/07 06:23:54;;;;;;;13.32;5.65;;;;;;;12.99;53.20;102201.57;1739141;81;21025;-79
2022/05/07 06:29:09;;;;;;;8.20;3.50;;;;;;;13.15;51.41;102192.80;1766061;80;21775;-79
2022/05/07 06:31:38;;;;;;;8.43;3.55;;;;;;;13.25;52.35;102192.62;1773515;80;20983;-81
2022/05/07 06:34:05;;;;;;;6.03;3.67;;;;;;;13.39;53.39;102193.11;1773577;80;21476;-81
2022/05/07 06:36:32;;;;;;;10.65;3.77;;;;;;;13.53;52.93;102194.39;1773868;80;21030;-77
2022/05/07 06:39:00;;;;;;;6.97;3.25;;;;;;;13.65;48.75;102185.41;1773430;80;21054;-77
2022/05/07 06:41:27;;;;;;;5.87;3.47;;;;;;;13.66;47.56;102188.41;1773321;80;21113;-79
2022/05/07 06:43:55;;;;;;;15.25;3.37;;;;;;;13.65;47.46;102188.02;1770397;80;21075;-79
2022/05/07 06:46:30;;;;;;;6.22;2.75;;;;;;;13.66;47.48;102186.61;1769882;80;21057;-78
2022/05/07 06:49:00;;;;;;;5.35;2.15;;;;;;;13.76;48.54;102185.55;1770014;80;21121;-77
2022/05/07 06:51:31;;;;;;;13.65;3.25;;;;;;;13.88;44.68;102193.09;1769987;80;21089;-80
2022/05/07 06:53:58;;;;;;;6.22;2.67;;;;;;;13.97;42.94;102189.05;1773664;80;21159;-80
2022/05/07 06:56:25;;;;;;;5.45;2.52;;;;;;;14.02;44.05;102187.80;1773574;80;21403;-81
2022/05/07 06:58:53;;;;;;;38.28;3.62;;;;;;;14.08;42.00;102191.80;1772878;80;21068;-77
2022/05/07 07:01:20;;;;;;;6.78;2.50;;;;;;;14.05;40.75;102186.78;1773111;80;21053;-79
2022/05/07 07:03:49;;;;;;;11.93;2.40;;;;;;;13.98;42.65;102182.87;1769535;80;21003;-77
2022/05/07 07:06:17;;;;;;;13.00;2.87;;;;;;;14.02;43.71;102180.42;1761037;80;21205;-77
2022/05/07 07:08:44;;;;;;;5.67;2.45;;;;;;;14.09;44.41;102179.56;1761413;80;21500;-79
2022/05/07 07:11:12;;;;;;;4.50;1.90;;;;;;;14.18;41.68;102174.55;1743002;80;21020;-79
2022/05/07 07:13:41;;;;;;;6.58;1.82;;;;;;;14.30;43.04;102171.59;1742939;80;21518;-78
2022/05/07 07:16:08;;;;;;;4.17;2.02;;;;;;;14.42;40.84;102173.86;1742897;82;21063;-77
2022/05/07 07:18:35;;;;;;;2.02;1.70;;;;;;;14.46;41.01;102177.94;1742952;82;22152;-78
2022/05/07 07:21:02;;;;;;;5.62;2.47;;;;;;;14.50;40.17;102175.98;1742741;82;21059;-79
2022/05/07 07:23:30;;;;;;;7.55;2.58;;;;;;;14.56;38.57;102174.70;1742978;82;21094;-79
2022/05/07 07:25:58;;;;;;;7.70;2.52;;;;;;;14.57;38.96;102168.53;1742858;82;21016;-79
2022/05/07 07:28:25;;;;;;;2.15;1.50;;;;;;;14.59;38.00;102178.45;1769024;80;21014;-80
2022/05/07 07:30:52;;;;;;;5.12;2.22;;;;;;;14.60;39.71;102169.16;1773587;80;21089;-81
2022/05/07 07:33:19;;;;;;;4.30;2.05;;;;;;;14.66;40.92;102174.02;1773387;80;21344;-80
2022/05/07 07:35:46;;;;;;;5.28;2.10;;;;;;;14.75;38.60;102172.56;1773659;80;21418;-80
2022/05/07 07:38:14;;;;;;;3.75;1.85;;;;;;;14.79;40.46;102167.95;1773606;80;22602;-83
2022/05/07 07:40:43;;;;;;;3.95;1.90;;;;;;;14.87;41.13;102160.84;1773433;80;21694;-80
2022/05/07 07:43:11;;;;;;;4.85;2.50;;;;;;;14.95;41.58;102148.05;1773399;80;21946;-84
2022/05/07 07:48:23;;;;;;;5.75;2.27;;;;;;;15.28;43.22;102134.81;1772984;80;21089;-81
2022/05/07 07:50:51;;;;;;;3.85;1.80;;;;;;;15.46;39.63;102139.25;1773051;80;21061;-83
2022/05/07 07:53:22;;;;;;;2.02;1.50;;;;;;;15.54;40.78;102133.42;1773462;80;21552;-82
2022/05/07 07:55:48;;;;;;;1.80;1.40;;;;;;;15.61;39.28;102130.27;1747828;80;22329;-81
2022/05/07 07:58:16;;;;;;;3.37;1.65;;;;;;;15.67;40.18;102123.70;1773212;80;21104;-80
2022/05/07 08:00:44;;;;;;;2.90;1.60;;;;;;;15.74;39.47;102122.79;1773307;80;21302;-78
2022/05/07 08:03:14;;;;;;;4.28;1.60;;;;;;;15.81;39.98;102125.81;1772710;80;21093;-79
2022/05/07 08:05:46;;;;;;;2.98;1.70;;;;;;;15.88;38.20;102122.63;1773520;80;21030;-78
2022/05/07 08:13:47;;;;;;;2.90;1.90;;;;;;;16.00;35.12;102120.06;1773478;80;21003;-76
2022/05/07 08:16:19;;;;;;;3.55;1.70;;;;;;;15.96;35.09;102121.22;1773278;80;21062;-77
2022/05/07 08:18:47;;;;;;;5.75;2.05;;;;;;;15.98;38.67;102110.13;1773266;80;20951;-77
2022/05/07 08:21:15;;;;;;;3.30;1.92;;;;;;;16.05;38.38;102113.52;1773550;80;21191;-77
2022/05/07 08:23:42;;;;;;;5.95;2.00;;;;;;;16.12;38.03;102109.11;1773287;80;21081;-77
2022/05/07 08:26:10;;;;;;;3.65;2.00;;;;;;;16.12;36.70;102111.73;1772914;80;21003;-78
2022/05/07 08:28:39;;;;;;;5.62;1.90;;;;;;;16.14;37.62;102117.23;1772958;80;21046;-77
2022/05/07 08:31:08;;;;;;;5.45;2.02;;;;;;;16.20;37.59;102108.88;1773219;80;21474;-79
2022/05/07 08:33:36;;;;;;;3.50;1.87;;;;;;;16.25;36.04;102107.22;1773147;80;21642;-79
2022/05/07 08:36:03;;;;;;;4.15;1.70;;;;;;;16.27;35.78;102104.00;1773700;80;21054;-78
2022/05/07 08:38:32;;;;;;;5.17;1.90;;;;;;;16.32;36.99;102099.72;1773497;80;21073;-78
2022/05/07 08:41:01;;;;;;;3.30;1.70;;;;;;;16.45;37.17;102093.05;1773173;80;21038;-77
2022/05/07 08:43:36;;;;;;;4.85;2.08;;;;;;;16.58;38.68;102102.97;1773161;80;21037;-77
2022/05/07 08:46:14;;;;;;;4.87;2.27;;;;;;;16.69;35.74;102099.04;1773271;80;22398;-77
2022/05/07 08:48:47;;;;;;;3.00;1.80;;;;;;;16.79;35.00;102103.09;1767565;80;21053;-79
2022/05/07 08:51:17;;;;;;;3.02;2.00;;;;;;;16.82;37.61;102093.66;1773689;80;21583;-77
2022/05/07 08:53:49;;;;;;;3.50;2.10;;;;;;;16.93;36.80;102094.16;1773748;80;21054;-78
2022/05/07 08:56:17;;;;;;;3.50;2.20;;;;;;;17.06;36.96;102090.08;1773898;80;21436;-78
2022/05/07 08:58:50;;;;;;;3.65;1.60;;;;;;;17.16;33.39;102080.47;1773432;80;21507;-78
2022/05/07 09:01:18;;;;;;;5.87;2.25;;;;;;;17.23;36.64;102079.50;1751805;80;21042;-77
2022/05/07 09:03:48;;;;;;;12.40;2.20;;;;;;;17.34;33.77;102072.91;1769179;80;21552;-78
2022/05/07 09:06:26;;;;;;;7.45;2.12;;;;;;;17.40;34.87;102082.58;1767445;81;21007;-78
2022/05/07 09:08:56;;;;;;;3.45;2.12;;;;;;;17.40;32.11;102072.04;1701622;84;21027;-79
2022/05/07 09:11:24;;;;;;;4.40;2.10;;;;;;;17.26;34.10;102067.42;1699128;83;21223;-80
2022/05/07 09:14:06;;;;;;;3.65;2.33;;;;;;;17.28;35.11;102068.11;1701701;83;21516;-79
2022/05/07 09:16:42;;;;;;;;;;;;;;;17.42;35.79;102071.44;1704348;84;21593;-78
2022/05/07 09:19:25;;;;;;;7.10;2.92;;;;;;;17.53;34.75;102067.44;1701573;84;20142;-80
2022/05/07 09:22:04;;;;;;;3.72;2.10;;;;;;;17.61;34.50;102065.01;1767164;80;21035;-82
2022/05/07 09:24:31;;;;;;;3.83;2.50;;;;;;;17.70;35.00;102061.26;1765785;81;21371;-78
2022/05/07 09:26:58;;;;;;;4.65;2.67;;;;;;;17.77;35.72;102054.05;1773218;80;21039;-78
2022/05/07 09:29:30;;;;;;;6.45;2.75;;;;;;;17.85;34.90;102047.30;1775872;80;21045;-79
2022/05/07 09:32:16;;;;;;;7.05;2.50;;;;;;;17.97;34.61;102041.88;1775451;80;21006;-77
2022/05/07 09:37:39;;;;;;;4.72;2.55;;;;;;;18.12;34.49;102048.13;1775852;80;21967;-78
2022/05/07 09:40:10;;;;;;;8.27;2.77;;;;;;;18.08;31.71;102033.52;1775821;80;21046;-79
2022/05/07 09:42:39;;;;;;;10.93;4.67;;;;;;;18.11;33.32;102028.82;1709702;83;21438;-80
2022/05/07 09:45:07;;;;;;;6.00;3.75;;;;;;;18.22;32.04;102033.20;1709700;83;21077;-79
2022/05/07 09:47:36;;;;;;;8.18;3.33;;;;;;;18.23;31.13;102031.39;1709497;84;21482;-78
2022/05/07 09:50:20;;;;;;;7.58;3.83;;;;;;;18.16;33.36;102037.66;1709331;84;21237;-79
2022/05/07 09:58:21;;;;;;;8.35;4.20;;;;;;;18.48;34.88;102027.47;1708937;83;21010;-78
2022/05/07 10:01:15;;;;;;;7.47;3.75;;;;;;;18.64;30.68;102020.37;1709369;83;21513;-79
2022/05/07 10:04:13;;;;;;;7.85;3.98;;;;;;;18.66;34.19;102021.09;1708130;83;21160;-80
2022/05/07 10:07:21;;;;;;;4.90;3.87;;;;;;;18.76;33.71;102013.19;1703475;83;21086;-83
2022/05/07 10:10:15;;;;;;;8.60;3.30;;;;;;;18.86;32.49;102004.81;1775693;80;21026;-78
2022/05/07 10:12:46;;;;;;;5.00;3.45;;;;;;;18.89;32.61;102001.89;1770980;80;21003;-79
2022/05/07 10:15:20;;;;;;;4.07;3.10;;;;;;;18.94;33.37;102011.25;1775952;80;21018;-79
2022/05/07 10:18:07;;;;;;;8.50;4.12;;;;;;;18.95;32.30;102004.50;1774260;80;22757;-79
2022/05/07 10:20:44;;;;;;;6.50;3.58;;;;;;;18.98;31.08;102009.99;1780413;80;21054;-83
2022/05/07 10:23:15;;;;;;;7.35;3.95;;;;;;;18.94;32.76;101996.73;1761873;80;21115;-81
2022/05/07 10:25:47;;;;;;;11.22;4.50;;;;;;;19.01;32.97;101982.84;1764812;80;21043;-80
2022/05/07 10:28:16;;;;;;;13.68;6.30;;;;;;;19.11;30.17;101985.47;1744568;80;21131;-79
2022/05/07 10:30:52;;;;;;;7.75;3.75;;;;;;;19.11;32.74;101986.79;1758276;80;21129;-79
2022/05/07 10:33:21;;;;;;;9.03;3.58;;;;;;;19.12;30.80;101993.74;1754665;80;21052;-80
2022/05/07 10:35:53;;;;;;;5.37;3.40;;;;;;;19.10;29.73;101981.19;1754804;80;21087;-80
2022/05/07 10:38:37;;;;;;;5.85;3.72;;;;;;;19.14;31.31;101979.92;1750839;80;22200;-79
2022/05/07 10:41:18;;;;;;;5.72;3.00;;;;;;;19.21;33.28;101969.16;1750906;80;21549;-78
2022/05/07 10:43:58;;;;;;;;;;;;;;;19.29;30.93;101966.30;1752291;80;21256;-80
2022/05/07 10:46:25;;;;;;;6.53;3.50;;;;;;;19.31;31.23;101966.50;1748883;82;20226;-77
2022/05/07 10:49:00;;;;;;;8.30;3.72;;;;;;;19.34;30.26;101970.19;1750444;80;21585;-77
2022/05/07 10:51:31;;;;;;;6.33;3.92;;;;;;;19.37;31.42;101968.60;1750618;80;21146;-83
2022/05/07 10:54:03;;;;;;;5.72;3.72;;;;;;;19.50;31.84;101960.86;1757305;80;21537;-78
2022/05/07 10:56:33;;;;;;;7.45;3.20;;;;;;;19.62;31.25;101950.96;1760044;80;21173;-79
2022/05/07 10:59:01;;;;;;;6.62;3.05;;;;;;;19.62;27.20;101947.85;1764076;80;21026;-78
2022/05/07 11:01:31;;;;;;;3.08;2.50;;;;;;;19.48;27.08;101944.31;1778788;80;21532;-78
2022/05/07 11:04:05;;;;;;;6.78;2.45;;;;;;;19.39;29.63;101946.83;1776756;80;21022;-77
2022/05/07 11:06:46;;;;;;;3.83;2.27;;;;;;;19.42;29.31;101947.05;1778586;80;21037;-80
2022/05/07 11:09:22;;;;;;;4.62;2.83;;;;;;;19.46;30.59;101941.00;1778343;80;21140;-78
2022/05/07 11:11:54;;;;;;;5.22;2.58;;;;;;;19.57;30.08;101938.17;1778644;80;20998;-78
2022/05/07 11:14:27;;;;;;;3.47;2.62;;;;;;;19.71;31.95;101938.22;1778959;80;21033;-78
2022/05/07 11:16:56;;;;;;;3.12;2.25;;;;;;;19.84;31.53;101929.50;1745505;80;21018;-78
2022/05/07 11:19:33;;;;;;;4.08;2.08;;;;;;;19.94;31.96;101926.00;1761300;80;21122;-78
2022/05/07 11:22:05;;;;;;;2.33;1.92;;;;;;;20.05;30.96;101920.53;1769686;80;21260;-80
2022/05/07 11:24:33;;;;;;;6.50;2.00;;;;;;;20.08;30.54;101915.44;1765101;80;21103;-78
2022/05/07 11:27:06;;;;;;;5.20;2.10;;;;;;;20.04;31.30;101918.87;1771258;80;21044;-78
2022/05/07 11:29:35;;;;;;;4.47;2.00;;;;;;;20.09;30.72;101911.32;1770668;80;21050;-77
2022/05/07 11:32:08;;;;;;;3.58;2.20;;;;;;;20.16;30.01;101910.25;1776486;80;22071;-77
2022/05/07 11:34:41;;;;;;;2.72;1.92;;;;;;;20.21;29.56;101905.34;1772164;80;21722;-78
2022/05/07 11:37:19;;;;;;;3.25;1.90;;;;;;;20.24;28.58;101903.73;1745401;80;21617;-77
2022/05/07 11:39:59;;;;;;;2.37;1.65;;;;;;;20.28;28.55;101906.92;1769355;80;21128;-79
2022/05/07 11:42:44;;;;;;;3.70;1.60;;;;;;;20.30;28.26;101897.03;1749887;80;21155;-79
2022/05/07 11:45:27;;;;;;;2.85;1.42;;;;;;;20.31;27.28;101896.05;1773220;80;21103;-78
2022/05/07 11:48:16;;;;;;;3.10;1.82;;;;;;;20.40;27.80;101894.31;1771893;80;21177;-77
2022/05/07 11:50:57;;;;;;;2.33;1.82;;;;;;;20.36;27.09;101897.75;1772045;80;21065;-77
2022/05/07 11:53:37;;;;;;;;;;;;;;;20.33;29.08;101895.39;1770848;79;21057;-79
2022/05/07 11:56:12;;;;;;;5.28;1.70;;;;;;;20.38;26.59;101894.47;1739917;81;20154;-80
2022/05/07 11:58:49;;;;;;;4.58;1.82;;;;;;;20.31;26.96;101886.30;1758486;80;21544;-78
2022/05/07 12:01:28;;;;;;;8.45;1.80;;;;;;;20.16;26.28;101878.52;1760269;81;21201;-78
2022/05/07 12:04:13;;;;;;;5.10;1.80;;;;;;;20.13;29.84;101879.66;1769627;80;21054;-76
2022/05/07 12:06:37;;;;;;;3.47;1.90;;;;;;;20.23;28.83;101873.48;1763455;80;21026;-77
2022/05/07 12:09:14;;;;;;;2.33;1.87;;;;;;;20.26;26.97;101874.48;1755920;80;21089;-77